Fairbanks, AK

4:12 AM AKST on February 24, 2017 (GMT -0900)
Woodsmoke | | Change Station

Elev 476 ft 64.78 °N, 147.28 °W | Updated 2 minutes ago

Snow
Snow
24.6 °F
Feels Like 24.6 °F
N
0.0
Wind Variable Wind from North
Gusts 0.0 mph

Today
High -- | Low -- °F
--% Chance of Precip.
Yesterday
High -- | Low -- °F
Precip. -- in
Pressure 30.23 in
Visibility 1.5 miles
Clouds Overcast 1200 ft
Dew Point 23.1 °F
Humidity 94%
Rainfall 0.00 in
Snow Depth Not available.
8:16 AM 5:53 PM
Waning Crescent, 5% visible
METAR PAFA 241253Z 11003KT 1 1/2SM -SN BR OVC012 M04/M04 A3019 RMK AO2 SLP235 P0006 T10391044 VISNO NE $
Pressure 30.23 in
Visibility 1.5 miles
Clouds Overcast 1200 ft
Dew Point 23.1 °F
Humidity 94%
Rainfall 0.00 in
Snow Depth Not available.
8:16 AM 5:53 PM
Waning Crescent, 5% visible
METAR PAFA 241253Z 11003KT 1 1/2SM -SN BR OVC012 M04/M04 A3019 RMK AO2 SLP235 P0006 T10391044 VISNO NE $

Get Your Daily Forecast Email!

Thanks for signing up!

Be on the lookout for a verification email in your inbox.

You'll start receiving the daily forecast at 8 AM.

×

10-Day Weather Forecast

Almanac

Astronomy

Feb. 24, 2017 Rise Set
Actual Time
Civil Twilight
Nautical Twilight
Astronomical Twilight
Moon
Length of Visible Light
Length of Day
Tomorrow will be .
, % of the Moon is Illuminated

Today's Extremes

State Highs State Lows

Community

WunderPhotos

Upload Photos

1,962,540 photos uploaded!

WunderBlog® & News

Nearby

Air Quality

  Air Quality AQ Index Pollutant
Not available.

Snow Depth

Station Depth Elevation

Earthquake Activity

City Distance Mag. Time & Date
Minimum magnitude displayed is 2.5.

Coastal Water Temperatures

Place Temperature

Stations

Nearby Weather Stations

Station Location Temp. Windchill Dew Point Humidity Wind Precip. Elev Updated Type
                   

Watches & Warnings

Winter Weather Advisory, Winter Storm Watch
Issued: 3:45 AM AKST Feb. 24, 2017 – National Weather Service

... Winter Weather Advisory remains in effect until noon akst
today...
... Winter Storm Watch remains in effect from Saturday afternoon
through Sunday morning...

* snow... additional snowfall of 1 to 2 inches through noon today.

* Timing... snow heavy at times will continue through noon today
with an additional 1 to 2 inches expected. Heavy snow
accumulations of 6 to 12 inches are expected with a second
storm on Saturday and Sunday.

* Impacts... visibility may be greatly reduced. Travel and
outdoor activities will be difficult.

Precautionary/preparedness actions...

A Winter Weather Advisory means that one or more winter weather
hazards are expected to cause travel difficulties.

A Winter Storm Watch means that there is a potential for one or
more significant winter weather hazards.